Nicholson, Pennsylvania
Current Conditions -  °F | °C
As of 10:54 AM on Thursday 27 Nov 2014 (Local Time) from KAVP Reporting Station
Light Snow Light Snow  
Wind Chill: 21°   Ceiling: 1500
Heat Index: 31°   Visibility: 5mi
Dew Point: 26°   Wind: 14mph
Humidity: 82%   Direction: 290°WNW
Pressure: 30"   Gusts: NA
Location:  41.63°N, 75.78°W
Report Text: KAVP 271554Z 29012KT 5SM -SN OVC015 M01/M03 A3000 RMK AO2 SLP167 P0000 T10061033
Loading
Personal Weather Stations






























Interactive Weather Map New forecast layout! Learn more

10-Day Weather Forecast

Advertisements
Track Severe Weather on mobile